Time;durP1;ratioP1;P1;durP2;ratioP2;P2;SDS_P1;SDS_P2;PMS_P1;PMS_P2;Temp;Humidity;BMP_temperature;BMP_pressure;BME280_temperature;BME280_humidity;BME280_pressure;Samples;Min_cycle;Max_cycle;Signal;HPM_P1;HPM_P2
2021/03/10 00:01:05;;;;;;;54.60;24.23;;;;;;;-3.07;50.61;100654.11;124705;1105;102788;-80
2021/03/10 00:03:33;;;;;;;45.40;23.23;;;;;;;-3.08;51.15;100657.48;124617;1109;104123;-80
2021/03/10 00:06:01;;;;;;;50.50;24.30;;;;;;;-3.09;51.07;100650.65;124575;1106;103550;-80
2021/03/10 00:08:28;;;;;;;49.10;22.75;;;;;;;-3.10;51.18;100654.02;124600;1105;104181;-79
2021/03/10 00:10:55;;;;;;;53.03;25.27;;;;;;;-3.11;51.29;100651.44;124643;1105;104193;-80
2021/03/10 00:13:22;;;;;;;48.42;23.98;;;;;;;-3.12;51.04;100649.70;124551;1108;104133;-81
2021/03/10 00:15:49;;;;;;;53.73;24.33;;;;;;;-3.15;51.32;100654.72;124608;1106;103089;-80
2021/03/10 00:18:16;;;;;;;51.67;23.80;;;;;;;-3.18;51.23;100655.50;124578;1109;104138;-80
2021/03/10 00:20:43;;;;;;;49.37;24.23;;;;;;;-3.20;50.96;100656.28;124609;1109;104737;-80
2021/03/10 00:23:10;;;;;;;47.87;23.40;;;;;;;-3.20;51.61;100653.73;124580;1105;104124;-79
2021/03/10 00:25:37;;;;;;;55.73;26.07;;;;;;;-3.22;51.41;100657.92;124561;1109;104160;-79
2021/03/10 00:28:05;;;;;;;50.85;24.25;;;;;;;-3.27;51.54;100660.31;124590;1105;104214;-80
2021/03/10 00:30:32;;;;;;;47.10;23.77;;;;;;;-3.28;51.09;100655.16;124550;1109;104304;-80
2021/03/10 00:32:59;;;;;;;53.00;23.93;;;;;;;-3.32;51.86;100656.77;124562;1108;104206;-80
2021/03/10 00:35:29;;;;;;;45.77;23.83;;;;;;;-3.35;52.06;100651.58;124564;1109;104200;-80
2021/03/10 00:37:59;;;;;;;50.80;24.07;;;;;;;-3.39;51.85;100652.31;124635;1109;104206;-80
2021/03/10 00:40:27;;;;;;;51.83;24.47;;;;;;;-3.43;52.70;100645.36;124629;1106;103350;-80
2021/03/10 00:42:55;;;;;;;58.03;25.80;;;;;;;-3.44;52.83;100643.63;124598;1109;104338;-80
2021/03/10 00:45:22;;;;;;;48.93;25.33;;;;;;;-3.46;52.04;100642.72;124576;1109;104160;-80
2021/03/10 00:47:49;;;;;;;53.47;26.50;;;;;;;-3.48;52.29;100641.81;124632;1106;104290;-80
2021/03/10 00:50:20;;;;;;;50.10;25.15;;;;;;;-3.50;52.61;100638.36;124633;1109;104204;-80
2021/03/10 00:52:48;;;;;;;50.80;24.93;;;;;;;-3.54;52.57;100639.95;124615;1109;104118;-79
2021/03/10 00:55:16;;;;;;;44.30;24.50;;;;;;;-3.57;53.29;100633.91;124574;1106;104037;-79
2021/03/10 00:57:45;;;;;;;52.13;25.67;;;;;;;-3.60;52.98;100637.19;124578;1109;104315;-80
2021/03/10 01:00:14;;;;;;;52.20;25.80;;;;;;;-3.61;53.00;100642.25;124633;1105;104278;-80
2021/03/10 01:02:41;;;;;;;52.97;25.23;;;;;;;-3.65;52.72;100636.19;124622;1105;104079;-79
2021/03/10 01:05:09;;;;;;;57.77;26.30;;;;;;;-3.67;53.28;100638.70;124576;1105;104111;-79
2021/03/10 01:07:36;;;;;;;51.70;25.73;;;;;;;-3.68;53.30;100641.20;124553;1105;104002;-79
2021/03/10 01:10:06;;;;;;;53.50;25.63;;;;;;;-3.70;53.39;100642.84;124582;1105;104124;-79
2021/03/10 01:12:33;;;;;;;49.47;25.93;;;;;;;-3.72;53.66;100635.15;124628;1105;104108;-80
2021/03/10 01:15:04;;;;;;;53.40;26.50;;;;;;;-3.72;53.65;100635.15;124578;1106;104287;-80
2021/03/10 01:17:31;;;;;;;51.97;25.37;;;;;;;-3.73;53.42;100632.55;124583;1109;104112;-80
2021/03/10 01:19:59;;;;;;;59.87;25.70;;;;;;;-3.74;53.89;100629.14;124538;1109;104268;-79
2021/03/10 01:22:26;;;;;;;53.13;25.90;;;;;;;-3.76;54.12;100630.78;124637;1109;104243;-80
2021/03/10 01:24:53;;;;;;;52.07;27.03;;;;;;;-3.77;53.54;100626.50;124636;1105;103299;-80
2021/03/10 01:27:19;;;;;;;54.83;28.40;;;;;;;-3.76;53.98;100623.13;124597;1109;102025;-79
2021/03/10 01:29:47;;;;;;;53.23;26.03;;;;;;;-3.76;53.70;100627.37;124588;1105;104226;-80
2021/03/10 01:32:15;;;;;;;61.60;28.13;;;;;;;-3.77;53.86;100625.61;124551;1105;104308;-80
2021/03/10 01:34:42;;;;;;;61.50;29.37;;;;;;;-3.79;54.48;100624.70;124587;1105;104223;-79
2021/03/10 01:37:09;;;;;;;58.57;28.93;;;;;;;-3.81;54.68;100623.78;124578;1106;104333;-80
2021/03/10 01:39:37;;;;;;;59.00;28.40;;;;;;;-3.85;54.37;100627.06;124654;1109;105981;-80
2021/03/10 01:42:05;;;;;;;63.83;29.82;;;;;;;-3.86;54.38;100618.55;124634;1105;104252;-80
2021/03/10 01:44:32;;;;;;;64.10;29.37;;;;;;;-3.87;54.52;100619.37;124579;1105;104462;-80
2021/03/10 01:47:01;;;;;;;65.07;30.43;;;;;;;-3.88;54.89;100621.88;124588;1108;104174;-79
2021/03/10 01:49:29;;;;;;;64.00;31.80;;;;;;;-3.89;55.53;100615.91;124608;1109;102965;-80
2021/03/10 01:51:56;;;;;;;60.77;30.93;;;;;;;-3.91;54.89;100622.64;124607;1106;104287;-79
2021/03/10 01:54:25;;;;;;;66.40;31.07;;;;;;;-3.92;54.96;100609.86;124593;1108;104284;-80
2021/03/10 01:56:52;;;;;;;59.70;29.27;;;;;;;-3.94;55.36;100611.50;124619;1106;104140;-80
2021/03/10 01:59:21;;;;;;;67.97;32.10;;;;;;;-3.95;54.90;100605.50;124673;1105;104341;-80
2021/03/10 02:01:48;;;;;;;70.57;30.97;;;;;;;-3.96;55.43;100608.87;124723;1109;104287;-80
2021/03/10 02:04:16;;;;;;;66.57;31.50;;;;;;;-3.96;55.43;100609.73;124634;1105;104156;-80
2021/03/10 02:07:04;;;;;;;71.17;33.17;;;;;;;-3.96;54.89;100608.87;124568;1108;104415;-79
2021/03/10 02:09:45;;;;;;;67.97;30.53;;;;;;;-3.98;55.59;100603.73;124699;1104;103934;-80
2021/03/10 02:12:24;;;;;;;63.70;31.27;;;;;;;-4.01;55.82;100606.19;124790;1105;104235;-79
2021/03/10 02:15:13;;;;;;;71.57;34.53;;;;;;;-4.02;55.86;100603.59;124624;1106;104765;-80
2021/03/10 02:17:50;;;;;;;68.33;32.60;;;;;;;-4.05;56.24;100600.95;124604;1105;104351;-80
2021/03/10 02:20:28;;;;;;;71.17;32.83;;;;;;;-4.07;55.88;100600.04;124657;1109;104137;-81
2021/03/10 02:23:10;;;;;;;70.57;32.63;;;;;;;-4.09;56.11;100599.13;124672;1106;104146;-80
2021/03/10 02:26:04;;;;;;;70.27;32.40;;;;;;;-4.12;55.88;100596.48;124659;1109;104223;-80
2021/03/10 02:28:33;;;;;;;67.13;32.63;;;;;;;-4.14;56.35;100593.86;124557;1105;104165;-80
2021/03/10 02:31:01;;;;;;;68.87;32.77;;;;;;;-4.15;56.35;100602.31;124636;1109;104195;-80
2021/03/10 02:33:30;;;;;;;70.37;34.43;;;;;;;-4.15;56.57;100601.45;124555;1109;104206;-80
2021/03/10 02:36:02;;;;;;;68.40;33.17;;;;;;;-4.17;56.44;100593.77;124647;1109;104002;-79
2021/03/10 02:38:29;;;;;;;71.37;33.13;;;;;;;-4.16;56.36;100599.72;124635;1105;104203;-80
2021/03/10 02:40:57;;;;;;;66.97;32.07;;;;;;;-4.16;56.92;100605.69;124678;1109;104201;-79
2021/03/10 02:43:25;;;;;;;69.80;34.07;;;;;;;-4.17;56.47;100605.63;124699;1108;103003;-79
2021/03/10 02:45:54;;;;;;;73.27;34.87;;;;;;;-4.17;56.90;100603.09;124662;1106;104156;-79
2021/03/10 02:48:23;;;;;;;71.40;34.37;;;;;;;-4.17;56.67;100603.95;124634;1105;105524;-79
2021/03/10 02:50:56;;;;;;;75.67;34.93;;;;;;;-4.19;57.09;100603.05;124580;1106;104118;-79
2021/03/10 02:53:23;;;;;;;77.60;35.33;;;;;;;-4.21;56.91;100596.17;124666;1105;102370;-79
2021/03/10 02:55:52;;;;;;;68.77;33.77;;;;;;;-4.22;57.20;100604.62;124579;1106;104233;-79
2021/03/10 02:58:19;;;;;;;73.63;36.20;;;;;;;-4.26;57.24;100601.98;124609;1105;103941;-79
2021/03/10 03:00:46;;;;;;;69.90;34.47;;;;;;;-4.28;57.27;100603.62;124657;1108;104187;-80
2021/03/10 03:03:13;;;;;;;74.93;35.70;;;;;;;-4.32;57.63;100599.22;124618;1105;104121;-80
2021/03/10 03:05:41;;;;;;;72.00;33.90;;;;;;;-4.33;57.79;100601.71;124561;1106;104111;-80
2021/03/10 03:08:09;;;;;;;75.03;34.50;;;;;;;-4.38;58.07;100588.84;124554;1109;104428;-79
2021/03/10 03:10:38;;;;;;;80.17;35.30;;;;;;;-4.40;57.67;100595.56;124584;1105;104153;-79
2021/03/10 03:13:08;;;;;;;62.93;32.37;;;;;;;-4.40;58.00;100597.24;124540;1105;104198;-79
2021/03/10 03:15:36;;;;;;;79.50;35.80;;;;;;;-4.41;58.18;100604.02;124597;1105;104130;-79
2021/03/10 03:18:05;;;;;;;73.67;36.33;;;;;;;-4.42;58.24;100604.83;124589;1106;104178;-78
2021/03/10 03:20:33;;;;;;;72.10;35.87;;;;;;;-4.43;57.87;100597.15;124645;1109;104300;-80
2021/03/10 03:23:04;;;;;;;76.00;35.73;;;;;;;-4.44;57.87;100596.28;124753;1105;104307;-79
2021/03/10 03:25:34;;;;;;;81.53;36.97;;;;;;;-4.44;58.75;100603.05;124557;1109;104012;-80
2021/03/10 03:28:05;;;;;;;83.57;39.13;;;;;;;-4.46;58.52;100605.55;124593;1109;104134;-79
2021/03/10 03:30:35;;;;;;;92.07;40.43;;;;;;;-4.48;58.69;100594.45;124708;1105;104720;-79
2021/03/10 03:33:08;;;;;;;82.70;39.57;;;;;;;-4.49;58.77;100597.78;124533;1106;104605;-79
2021/03/10 03:35:35;;;;;;;86.20;39.75;;;;;;;-4.49;59.00;100600.33;124532;1106;104239;-79
2021/03/10 03:38:04;;;;;;;86.47;41.37;;;;;;;-4.50;58.77;100593.51;124535;1106;104306;-79
2021/03/10 03:40:32;;;;;;;83.93;39.10;;;;;;;-4.50;58.36;100600.28;124584;1106;104203;-79
2021/03/10 03:43:00;;;;;;;79.37;39.30;;;;;;;-4.53;58.44;100597.64;124594;1109;104130;-78
2021/03/10 03:45:27;;;;;;;76.47;35.13;;;;;;;-4.56;59.17;100593.31;124602;1105;104570;-79
2021/03/10 03:47:57;;;;;;;73.53;33.93;;;;;;;-4.59;59.18;100596.63;124771;1105;104101;-80
2021/03/10 03:50:27;;;;;;;77.17;36.63;;;;;;;-4.60;58.82;100597.44;124671;1105;104201;-80
2021/03/10 03:52:55;;;;;;;71.70;34.10;;;;;;;-4.60;58.76;100594.89;124606;1106;104123;-80
2021/03/10 03:55:22;;;;;;;68.93;35.27;;;;;;;-4.59;59.38;100598.30;124596;1105;101782;-80
2021/03/10 03:57:50;;;;;;;69.27;34.37;;;;;;;-4.59;58.84;100605.94;124559;1105;104255;-79
2021/03/10 04:00:20;;;;;;;72.17;35.17;;;;;;;-4.60;59.22;100596.58;124551;1108;104159;-79
2021/03/10 04:02:48;;;;;;;69.67;34.73;;;;;;;-4.61;59.01;100598.25;124584;1105;104640;-80
2021/03/10 04:05:16;;;;;;;78.23;34.60;;;;;;;-4.61;59.13;100599.94;124573;1105;104117;-80
2021/03/10 04:08:03;;;;;;;71.73;34.83;;;;;;;-4.61;59.66;100605.02;124569;1106;104120;-80
2021/03/10 04:10:34;;;;;;;70.97;34.43;;;;;;;-4.62;59.60;100598.20;124543;1109;104354;-79
2021/03/10 04:13:03;;;;;;;70.87;34.60;;;;;;;-4.63;59.26;100599.02;124512;1109;104223;-79
2021/03/10 04:15:32;;;;;;;65.87;31.27;;;;;;;-4.64;59.39;100594.75;124718;1106;104105;-79
2021/03/10 04:18:00;;;;;;;71.17;34.27;;;;;;;-4.65;59.19;100598.11;124573;1107;104111;-79
2021/03/10 04:20:27;;;;;;;78.03;36.50;;;;;;;-4.67;59.63;100599.70;124555;1109;104828;-80
2021/03/10 04:22:54;;;;;;;73.47;35.50;;;;;;;-4.69;59.49;100597.11;124561;1106;102062;-79
2021/03/10 04:25:22;;;;;;;74.92;35.05;;;;;;;-4.70;59.51;100600.47;124564;1105;104300;-80
2021/03/10 04:27:49;;;;;;;72.47;34.47;;;;;;;-4.70;59.54;100604.69;124540;1107;104181;-79
2021/03/10 04:30:16;;;;;;;69.70;34.47;;;;;;;-4.69;60.00;100603.88;124637;1109;104197;-79
2021/03/10 04:32:44;;;;;;;72.93;34.93;;;;;;;-4.69;60.02;100608.97;124632;1109;104125;-79
2021/03/10 04:35:11;;;;;;;77.80;35.83;;;;;;;-4.71;60.18;100603.83;124680;1106;104131;-79
2021/03/10 04:37:40;;;;;;;75.17;34.97;;;;;;;-4.70;59.55;100605.56;124569;1106;104137;-79
2021/03/10 04:40:09;;;;;;;71.43;33.93;;;;;;;-4.70;59.94;100607.23;124597;1106;104168;-79
2021/03/10 04:42:38;;;;;;;74.10;35.10;;;;;;;-4.70;60.16;100604.69;124567;1109;104143;-79
2021/03/10 04:45:07;;;;;;;73.57;35.80;;;;;;;-4.70;60.11;100608.10;124773;1105;104152;-80
2021/03/10 04:47:35;;;;;;;74.60;34.00;;;;;;;-4.69;59.92;100603.88;124603;1105;104156;-79
2021/03/10 04:50:04;;;;;;;69.65;34.90;;;;;;;-4.68;60.04;100611.56;124559;1109;104264;-80
2021/03/10 04:52:32;;;;;;;70.83;34.00;;;;;;;-4.68;60.31;100598.84;124586;1105;104258;-79
2021/03/10 04:54:59;;;;;;;69.77;33.23;;;;;;;-4.67;59.82;100608.23;124551;1105;104162;-80
2021/03/10 04:57:26;;;;;;;72.00;35.00;;;;;;;-4.67;60.50;100605.69;124566;1105;105215;-80
2021/03/10 04:59:53;;;;;;;76.13;33.83;;;;;;;-4.64;59.96;100610.02;124741;1105;104140;-80
2021/03/10 05:02:20;;;;;;;74.00;35.17;;;;;;;-4.61;60.14;100610.11;124510;1106;104251;-81
2021/03/10 05:04:48;;;;;;;74.50;34.20;;;;;;;-4.61;60.49;100605.02;124579;1106;104120;-79
2021/03/10 05:07:16;;;;;;;73.13;35.37;;;;;;;-4.60;60.15;100607.63;124499;1106;104194;-79
2021/03/10 05:09:43;;;;;;;69.13;34.47;;;;;;;-4.57;60.32;100615.36;124570;1105;104137;-80
2021/03/10 05:12:11;;;;;;;75.57;35.73;;;;;;;-4.53;60.64;100611.23;124628;1106;104160;-80
2021/03/10 05:14:38;;;;;;;65.53;32.73;;;;;;;-4.50;60.42;100608.78;124597;1105;104277;-80
2021/03/10 05:17:06;;;;;;;70.83;32.93;;;;;;;-4.45;60.17;100612.38;124609;1105;104338;-80
2021/03/10 05:19:34;;;;;;;65.80;32.73;;;;;;;-4.38;60.37;100606.66;124587;1109;104101;-79
2021/03/10 05:22:01;;;;;;;69.13;34.73;;;;;;;-4.30;60.37;100607.80;124852;1105;104249;-80
2021/03/10 05:24:28;;;;;;;67.42;34.00;;;;;;;-4.16;60.06;100609.91;124533;1109;104229;-79
2021/03/10 05:26:55;;;;;;;70.63;34.90;;;;;;;-3.99;60.05;100604.55;124554;1105;104776;-80
2021/03/10 05:29:22;;;;;;;73.30;33.90;;;;;;;-3.73;60.31;100605.38;124560;1109;104217;-80
2021/03/10 05:31:50;;;;;;;75.13;35.80;;;;;;;-3.38;59.59;100605.59;124541;1106;104201;-80
2021/03/10 05:34:17;;;;;;;72.43;35.30;;;;;;;-3.02;58.40;100604.92;124682;1105;104270;-79
2021/03/10 05:36:44;;;;;;;65.63;33.70;;;;;;;-2.63;57.97;100592.38;124689;1109;103081;-79
2021/03/10 05:39:15;;;;;;;67.60;33.27;;;;;;;-2.26;57.60;100606.95;124742;1105;103772;-80
2021/03/10 05:41:43;;;;;;;77.30;33.73;;;;;;;-2.00;56.86;100605.89;124650;1106;104195;-79
2021/03/10 05:44:10;;;;;;;61.30;31.33;;;;;;;-1.73;56.15;100607.39;124573;1109;104354;-79
2021/03/10 05:46:38;;;;;;;65.17;34.30;;;;;;;-1.48;56.38;100607.10;124586;1105;104257;-79
2021/03/10 05:49:07;;;;;;;68.37;34.17;;;;;;;-1.17;55.29;100610.33;124513;1106;104934;-80
2021/03/10 05:51:35;;;;;;;66.43;34.30;;;;;;;-0.87;55.04;100608.41;124588;1109;104195;-79
2021/03/10 05:54:04;;;;;;;67.80;35.17;;;;;;;-0.57;54.57;100613.23;124595;1106;104262;-80
2021/03/10 05:56:33;;;;;;;61.20;32.97;;;;;;;-0.21;53.51;100610.47;124532;1109;104227;-80
2021/03/10 05:59:03;;;;;;;68.87;34.17;;;;;;;0.20;53.18;100610.30;124608;1106;104220;-80
2021/03/10 06:01:30;;;;;;;63.70;34.23;;;;;;;0.57;52.37;100614.27;124542;1109;104252;-80
2021/03/10 06:04:03;;;;;;;62.95;33.10;;;;;;;0.97;51.47;100610.52;124589;1109;104165;-80
2021/03/10 06:06:41;;;;;;;62.50;34.23;;;;;;;1.37;50.55;100608.41;124774;1106;104252;-80
2021/03/10 06:09:21;;;;;;;61.70;33.00;;;;;;;1.98;49.74;100612.46;124881;1106;104114;-80
2021/03/10 06:12:07;;;;;;;57.03;32.27;;;;;;;2.62;48.50;100609.47;124917;1109;103045;-80
2021/03/10 06:14:34;;;;;;;62.13;34.47;;;;;;;2.99;47.54;100616.53;124832;1109;104108;-80
2021/03/10 06:17:06;;;;;;;58.03;32.43;;;;;;;2.96;46.86;100620.81;124624;1109;105675;-80
2021/03/10 06:19:48;;;;;;;62.43;34.13;;;;;;;2.80;45.98;100626.74;124603;1109;104544;-79
2021/03/10 06:22:17;;;;;;;62.17;33.03;;;;;;;2.59;46.25;100630.92;124582;1109;104210;-79
2021/03/10 06:24:48;;;;;;;62.30;32.43;;;;;;;2.49;46.51;100638.56;124579;1105;104253;-78
2021/03/10 06:27:23;;;;;;;56.37;31.13;;;;;;;2.47;46.49;100635.11;124499;1106;104408;-79
2021/03/10 06:29:55;;;;;;;61.47;32.80;;;;;;;2.44;46.57;100641.11;124529;1109;104114;-79
2021/03/10 06:32:23;;;;;;;59.93;31.73;;;;;;;2.45;46.59;100635.11;124560;1109;104351;-80
2021/03/10 06:34:52;;;;;;;58.30;31.70;;;;;;;2.32;46.38;100636.72;124561;1105;104284;-79
2021/03/10 06:37:31;;;;;;;69.35;35.45;;;;;;;2.19;46.27;100634.06;124793;1105;104204;-79
2021/03/10 06:40:12;;;;;;;68.57;33.50;;;;;;;2.07;46.54;100630.53;124560;1105;104271;-79
2021/03/10 06:42:40;;;;;;;64.97;33.93;;;;;;;2.04;46.57;100639.94;124670;1105;104534;-78
2021/03/10 06:45:08;;;;;;;69.43;34.07;;;;;;;2.61;46.11;100634.36;124566;1108;104107;-79
2021/03/10 06:47:41;;;;;;;65.20;34.80;;;;;;;2.74;45.98;100645.61;124578;1105;104232;-80
2021/03/10 06:50:13;;;;;;;65.63;35.03;;;;;;;2.79;45.93;100646.48;124578;1108;104210;-79
2021/03/10 06:52:51;;;;;;;65.40;34.65;;;;;;;2.92;45.50;100645.71;124530;1109;104095;-78
2021/03/10 06:55:18;;;;;;;65.63;35.03;;;;;;;3.07;45.09;100644.07;124652;1105;104012;-80
2021/03/10 06:57:45;;;;;;;60.00;31.87;;;;;;;3.21;44.77;100639.81;124549;1105;104223;-79
2021/03/10 07:00:23;;;;;;;56.70;30.37;;;;;;;3.62;44.99;100645.98;124536;1109;104334;-80
2021/03/10 07:02:52;;;;;;;62.27;33.53;;;;;;;4.20;43.69;100647.77;124540;1105;104254;-80
2021/03/10 07:05:20;;;;;;;62.50;33.53;;;;;;;4.38;42.70;100654.66;124516;1109;104140;-80
2021/03/10 07:07:47;;;;;;;63.50;34.37;;;;;;;4.88;42.08;100646.84;124537;1109;104347;-79
2021/03/10 07:10:21;;;;;;;65.37;31.80;;;;;;;6.23;41.98;100647.00;124545;1109;104146;-80
2021/03/10 07:12:49;;;;;;;56.90;31.17;;;;;;;7.55;39.80;100647.34;124517;1106;104112;-79
2021/03/10 07:15:17;;;;;;;60.27;32.10;;;;;;;8.91;39.24;100635.61;124542;1105;102556;-80
2021/03/10 07:17:48;;;;;;;62.57;32.10;;;;;;;9.65;38.10;100633.19;124519;1105;104285;-79
2021/03/10 07:20:17;;;;;;;57.57;30.90;;;;;;;10.37;37.14;100638.49;124588;1105;104168;-78
2021/03/10 07:23:05;;;;;;;49.23;29.20;;;;;;;10.98;36.18;100626.47;124547;1109;104166;-79
2021/03/10 07:25:34;;;;;;;47.80;28.13;;;;;;;12.23;34.13;100635.77;124507;1106;104280;-79
2021/03/10 07:28:11;;;;;;;44.97;26.77;;;;;;;12.82;32.90;100622.41;124534;1105;104338;-79
2021/03/10 07:30:42;;;;;;;54.40;29.73;;;;;;;13.16;31.87;100622.05;124509;1106;104658;-78
2021/03/10 07:33:12;;;;;;;49.60;27.77;;;;;;;13.86;30.90;100625.49;124605;1106;104194;-79
2021/03/10 07:36:09;;;;;;;51.73;29.67;;;;;;;14.86;31.02;100619.58;124536;1106;104290;-80
2021/03/10 07:38:36;;;;;;;45.63;27.13;;;;;;;15.52;29.54;100617.47;124711;1105;101636;-79
2021/03/10 07:41:08;;;;;;;47.23;32.38;;;;;;;15.51;27.60;100621.02;124685;1105;104232;-79
2021/03/10 07:43:44;;;;;;;47.83;29.03;;;;;;;14.95;28.91;100623.59;124706;1105;104293;-79
2021/03/10 07:46:29;;;;;;;48.23;28.17;;;;;;;14.89;28.42;100619.44;124876;1106;104236;-79
2021/03/10 07:48:59;;;;;;;46.60;26.63;;;;;;;14.55;27.71;100624.47;124559;1105;104255;-79
2021/03/10 07:51:35;;;;;;;45.77;27.80;;;;;;;14.25;28.41;100629.19;124700;1105;104136;-79
2021/03/10 07:54:17;;;;;;;50.60;28.83;;;;;;;14.78;28.62;100633.06;124541;1109;102543;-79
2021/03/10 07:56:44;;;;;;;42.57;27.93;;;;;;;15.77;27.80;100626.85;124563;1109;102946;-79
2021/03/10 07:59:12;;;;;;;46.83;29.13;;;;;;;16.49;27.48;100626.80;124505;1108;104221;-80
2021/03/10 08:01:40;;;;;;;49.20;28.90;;;;;;;16.89;26.82;100623.88;124531;1105;104220;-80
2021/03/10 08:04:16;;;;;;;47.80;28.60;;;;;;;16.61;26.59;100628.83;124581;1105;104191;-79
2021/03/10 08:06:52;;;;;;;45.13;25.13;;;;;;;16.25;26.78;100631.52;124569;1105;103566;-79
2021/03/10 08:09:22;;;;;;;47.40;27.50;;;;;;;16.03;26.17;100639.63;124537;1105;104873;-80
2021/03/10 08:12:02;;;;;;;47.85;27.35;;;;;;;15.71;25.88;100642.00;124581;1106;104201;-80
2021/03/10 08:14:35;;;;;;;41.90;25.27;;;;;;;15.31;26.47;100642.97;124836;1105;104146;-80
2021/03/10 08:17:03;;;;;;;41.37;24.93;;;;;;;15.05;25.74;100643.27;124534;1109;105798;-80
2021/03/10 08:19:32;;;;;;;43.33;26.47;;;;;;;15.24;26.19;100638.03;124576;1109;104392;-79
2021/03/10 08:22:00;;;;;;;47.97;28.37;;;;;;;15.97;25.56;100638.12;124577;1109;104763;-79
2021/03/10 08:24:28;;;;;;;46.50;26.63;;;;;;;16.53;25.41;100639.77;124623;1105;104044;-80
2021/03/10 08:27:00;;;;;;;39.30;25.33;;;;;;;17.17;25.22;100633.80;124574;1109;104160;-80
2021/03/10 08:29:30;;;;;;;51.20;29.27;;;;;;;17.79;24.58;100626.94;124598;1106;104105;-79
2021/03/10 08:31:59;;;;;;;41.55;26.25;;;;;;;18.25;24.16;100634.86;124832;1109;104184;-80
2021/03/10 08:34:36;;;;;;;45.20;26.47;;;;;;;18.31;24.02;100623.09;124707;1105;104306;-80
2021/03/10 08:37:08;;;;;;;;;;;;;;;18.89;23.31;100622.33;124767;1105;104433;-80
2021/03/10 08:39:45;;;;;;;42.77;25.40;;;;;;;18.85;23.66;100628.72;124686;1105;104261;-79
2021/03/10 08:42:19;;;;;;;39.60;25.40;;;;;;;19.12;24.09;100623.55;124655;1106;103214;-80
2021/03/10 08:44:48;;;;;;;33.50;22.13;;;;;;;19.08;23.13;100629.98;124611;1105;104174;-81
2021/03/10 08:47:20;;;;;;;30.83;21.73;;;;;;;19.12;22.54;100621.77;124521;1106;104306;-80
2021/03/10 08:49:53;;;;;;;32.53;21.07;;;;;;;19.30;22.58;100630.35;124587;1105;104169;-81
2021/03/10 08:52:22;;;;;;;30.47;19.83;;;;;;;19.31;22.86;100621.47;124717;1105;104172;-81
2021/03/10 08:54:54;;;;;;;37.30;22.73;;;;;;;19.41;21.57;100621.76;124729;1108;104233;-81
2021/03/10 08:57:23;;;;;;;25.67;17.97;;;;;;;19.61;22.25;100630.16;124678;1109;104152;-80
2021/03/10 08:59:51;;;;;;;25.33;17.20;;;;;;;20.00;22.48;100614.45;124641;1106;104219;-81
2021/03/10 09:02:35;;;;;;;26.33;18.47;;;;;;;20.25;20.68;100614.52;124658;1109;104217;-81
2021/03/10 09:05:06;;;;;;;18.43;11.57;;;;;;;20.15;21.77;100624.05;124756;1109;104325;-82
2021/03/10 09:07:34;;;;;;;13.10;9.20;;;;;;;20.27;21.33;100609.97;124671;1105;104245;-81
2021/03/10 09:10:14;;;;;;;17.67;10.77;;;;;;;20.78;20.63;100616.23;124653;1105;104246;-81
2021/03/10 09:12:45;;;;;;;14.87;10.07;;;;;;;21.15;20.90;100618.12;124652;1109;104108;-81
2021/03/10 09:15:24;;;;;;;15.33;10.37;;;;;;;21.33;21.05;100611.55;124684;1108;104313;-80
2021/03/10 09:18:01;;;;;;;22.30;12.70;;;;;;;21.40;21.01;100616.33;124631;1106;104294;-81
2021/03/10 09:20:31;;;;;;;19.60;13.53;;;;;;;21.58;21.17;100608.02;124623;1105;104190;-79
2021/03/10 09:23:06;;;;;;;22.20;15.32;;;;;;;21.96;20.22;100613.17;124523;1106;104570;-80
2021/03/10 09:25:40;;;;;;;21.13;14.77;;;;;;;22.25;19.90;100608.37;124449;1109;104267;-79
2021/03/10 09:28:16;;;;;;;24.17;14.17;;;;;;;22.43;19.55;100608.79;124660;1105;104355;-81
2021/03/10 09:30:58;;;;;;;25.73;14.60;;;;;;;22.04;18.15;100613.44;124551;1106;104185;-80
2021/03/10 09:33:29;;;;;;;21.93;14.40;;;;;;;21.76;18.78;100606.68;124589;1106;101752;-81
2021/03/10 09:36:01;;;;;;;17.53;12.67;;;;;;;21.61;19.91;100603.33;124639;1105;104265;-81
2021/03/10 09:38:31;;;;;;;19.27;13.13;;;;;;;21.27;17.98;100604.05;124620;1106;104944;-80
2021/03/10 09:41:04;;;;;;;22.30;13.47;;;;;;;20.38;19.10;100607.46;124677;1109;104140;-81
2021/03/10 09:43:34;;;;;;;22.07;13.87;;;;;;;19.49;18.34;100615.02;124652;1109;104207;-81
2021/03/10 09:46:08;;;;;;;18.93;12.20;;;;;;;18.09;18.31;100616.41;124660;1109;104609;-80
2021/03/10 09:48:38;;;;;;;18.47;11.90;;;;;;;17.47;19.85;100617.28;124699;1109;104338;-81
2021/03/10 09:51:21;;;;;;;17.80;11.43;;;;;;;17.22;19.78;100617.73;124680;1105;104301;-81
2021/03/10 09:53:53;;;;;;;18.20;11.03;;;;;;;16.67;19.87;100622.42;124744;1106;104214;-80
2021/03/10 09:56:51;;;;;;;18.33;11.47;;;;;;;16.48;19.96;100625.10;124634;1105;104133;-81
2021/03/10 09:59:35;;;;;;;19.53;11.80;;;;;;;16.13;20.90;100622.44;124684;1109;104357;-80
2021/03/10 10:02:08;;;;;;;16.33;11.17;;;;;;;16.28;20.85;100621.69;124631;1106;104262;-80
2021/03/10 10:04:42;;;;;;;16.87;10.93;;;;;;;16.49;21.27;100624.17;124661;1106;104267;-81
2021/03/10 10:07:12;;;;;;;16.53;10.70;;;;;;;16.98;21.21;100621.69;124665;1109;103918;-81
2021/03/10 10:09:50;;;;;;;19.40;11.27;;;;;;;16.39;20.82;100625.58;124732;1106;104111;-80
2021/03/10 10:12:44;;;;;;;18.20;11.27;;;;;;;15.69;20.21;100628.08;124758;1108;102267;-81
2021/03/10 10:15:15;;;;;;;16.65;12.75;;;;;;;14.89;21.03;100642.22;124708;1104;104140;-81
2021/03/10 10:17:48;;;;;;;21.17;14.10;;;;;;;14.62;21.50;100644.28;124619;1106;103980;-81
2021/03/10 10:20:19;;;;;;;16.50;11.00;;;;;;;14.22;21.39;100645.91;124674;1106;104220;-81
2021/03/10 10:22:47;;;;;;;16.23;10.60;;;;;;;13.76;22.43;100641.63;124671;1109;104112;-81
2021/03/10 10:25:20;;;;;;;16.70;10.33;;;;;;;13.22;22.38;100648.89;124751;1105;102900;-80
2021/03/10 10:27:50;;;;;;;24.90;13.90;;;;;;;12.77;22.50;100645.28;124672;1107;102833;-80
2021/03/10 10:30:19;;;;;;;19.40;12.60;;;;;;;12.46;23.47;100643.70;124649;1105;104274;-80
2021/03/10 10:32:50;;;;;;;17.07;11.37;;;;;;;12.58;23.14;100645.91;124653;1106;104117;-81
2021/03/10 10:35:20;;;;;;;16.10;10.83;;;;;;;12.98;23.41;100639.28;124662;1106;104140;-80
2021/03/10 10:37:47;;;;;;;18.63;10.27;;;;;;;12.99;23.12;100656.70;124695;1109;103547;-81
2021/03/10 10:40:19;;;;;;;15.10;8.87;;;;;;;12.73;22.40;100656.73;124634;1109;104117;-81
2021/03/10 10:43:04;;;;;;;16.10;9.80;;;;;;;12.46;22.91;100661.16;124681;1106;104117;-80
2021/03/10 10:45:31;;;;;;;14.50;9.03;;;;;;;12.15;22.96;100653.45;124656;1105;104255;-80
2021/03/10 10:48:01;;;;;;;16.40;9.77;;;;;;;11.80;23.58;100658.02;124675;1106;104265;-81
2021/03/10 10:50:41;;;;;;;16.60;11.10;;;;;;;11.53;23.86;100657.07;124672;1109;104141;-80
2021/03/10 10:53:09;;;;;;;14.67;10.13;;;;;;;11.39;23.39;100654.00;124767;1106;104229;-81
2021/03/10 10:55:36;;;;;;;18.10;10.47;;;;;;;11.14;23.95;100649.48;125236;1109;104194;-81
2021/03/10 10:58:07;;;;;;;19.97;12.67;;;;;;;11.14;24.46;100644.27;125381;1108;103052;-81
2021/03/10 11:00:38;;;;;;;17.47;10.77;;;;;;;11.08;24.97;100654.00;125272;1106;104245;-80
2021/03/10 11:03:08;;;;;;;14.93;10.13;;;;;;;11.01;24.61;100647.25;124774;1105;104216;-80
2021/03/10 11:05:43;;;;;;;17.13;9.83;;;;;;;10.81;24.36;100646.05;124594;1109;104117;-81
2021/03/10 11:08:10;;;;;;;19.87;10.43;;;;;;;10.64;24.77;100640.41;124549;1109;104149;-80
2021/03/10 11:10:38;;;;;;;16.10;10.53;;;;;;;10.56;24.75;100645.81;124566;1105;104294;-80